Time;durP1;ratioP1;P1;durP2;ratioP2;P2;SDS_P1;SDS_P2;PMS_P1;PMS_P2;Temp;Humidity;BMP_temperature;BMP_pressure;BME280_temperature;BME280_humidity;BME280_pressure;Samples;Min_cycle;Max_cycle;Signal;HPM_P1;HPM_P2
2022/08/26 00:01:39;;;;;;;2.40;2.30;;;;;;;;;;5068675;28;20213;-69
2022/08/26 00:04:06;;;;;;;2.67;2.38;;;;;;;;;;5068486;28;20575;-69
2022/08/26 00:06:33;;;;;;;2.00;1.90;;;;;;;;;;5057958;28;20649;-70
2022/08/26 00:09:02;;;;;;;2.22;2.13;;;;;;;;;;5049447;28;20207;-69
2022/08/26 00:11:29;;;;;;;2.78;2.58;;;;;;;;;;5065867;28;20600;-69
2022/08/26 00:13:56;;;;;;;2.38;2.28;;;;;;;;;;5068519;28;20206;-70
2022/08/26 00:16:24;;;;;;;2.22;2.10;;;;;;;;;;5066536;28;20207;-69
2022/08/26 00:18:51;;;;;;;2.30;2.20;;;;;;;;;;5066267;28;20214;-69
2022/08/26 00:21:18;;;;;;;2.30;2.20;;;;;;;;;;5052486;28;20235;-68
2022/08/26 00:23:46;;;;;;;2.97;2.30;;;;;;;;;;5058645;28;20673;-69
2022/08/26 00:26:15;;;;;;;2.63;2.38;;;;;;;;;;5068112;28;20217;-69
2022/08/26 00:28:42;;;;;;;2.28;2.10;;;;;;;;;;5056633;28;20219;-69
2022/08/26 00:31:09;;;;;;;2.25;2.15;;;;;;;;;;5061178;28;20633;-69
2022/08/26 00:33:37;;;;;;;2.30;2.20;;;;;;;;;;5049807;28;20207;-69
2022/08/26 00:36:04;;;;;;;2.47;2.33;;;;;;;;;;5055494;28;20210;-70
2022/08/26 00:38:31;;;;;;;2.33;2.22;;;;;;;;;;5054672;28;20210;-69
2022/08/26 00:40:59;;;;;;;2.42;2.33;;;;;;;;;;5067955;28;20241;-70
2022/08/26 00:43:27;;;;;;;2.50;2.40;;;;;;;;;;5066132;28;20843;-69
2022/08/26 00:45:58;;;;;;;2.67;2.42;;;;;;;;;;5048172;28;20211;-69
2022/08/26 00:48:26;;;;;;;2.35;2.25;;;;;;;;;;5048424;28;20682;-69
2022/08/26 00:50:54;;;;;;;2.28;2.17;;;;;;;;;;5046313;28;20203;-70
2022/08/26 00:53:24;;;;;;;2.17;2.08;;;;;;;;;;5048213;28;20666;-69
2022/08/26 00:55:53;;;;;;;2.28;2.17;;;;;;;;;;5048496;28;20203;-70
2022/08/26 00:58:21;;;;;;;3.03;2.85;;;;;;;;;;5048149;28;20207;-69
2022/08/26 01:00:49;;;;;;;2.33;2.10;;;;;;;;;;5052219;28;20223;-70
2022/08/26 01:03:18;;;;;;;2.30;2.20;;;;;;;;;;5048964;28;20207;-69
2022/08/26 01:05:46;;;;;;;2.63;2.40;;;;;;;;;;5058938;28;20210;-70
2022/08/26 01:08:13;;;;;;;2.28;2.17;;;;;;;;;;5062609;28;20276;-70
2022/08/26 01:10:40;;;;;;;2.55;2.45;;;;;;;;;;5058767;28;20199;-70
2022/08/26 01:13:09;;;;;;;3.05;2.58;;;;;;;;;;5053070;28;20208;-70
2022/08/26 01:15:38;;;;;;;2.20;2.10;;;;;;;;;;5053519;28;20681;-69
2022/08/26 01:18:07;;;;;;;2.78;1.90;;;;;;;;;;5069034;28;20227;-70
2022/08/26 01:20:38;;;;;;;2.58;2.38;;;;;;;;;;5072069;28;20226;-69
2022/08/26 01:23:07;;;;;;;2.15;2.05;;;;;;;;;;5056178;28;20318;-70
2022/08/26 01:25:37;;;;;;;2.33;2.22;;;;;;;;;;5068589;28;20215;-69
2022/08/26 01:28:07;;;;;;;2.08;1.98;;;;;;;;;;5051919;28;20851;-69
2022/08/26 01:30:35;;;;;;;2.53;2.42;;;;;;;;;;5063160;28;20199;-69
2022/08/26 01:33:05;;;;;;;2.67;2.47;;;;;;;;;;5072034;28;20230;-69
2022/08/26 01:35:32;;;;;;;2.00;1.92;;;;;;;;;;5064112;28;20654;-69
2022/08/26 01:38:01;;;;;;;2.30;2.20;;;;;;;;;;5052131;28;20223;-69
2022/08/26 01:40:32;;;;;;;2.13;2.03;;;;;;;;;;5056082;28;20696;-70
2022/08/26 01:43:01;;;;;;;2.25;2.15;;;;;;;;;;5064190;28;20213;-69
2022/08/26 01:45:29;;;;;;;4.65;2.58;;;;;;;;;;5071047;28;20210;-70
2022/08/26 01:47:59;;;;;;;2.20;2.10;;;;;;;;;;5053628;28;20206;-69
2022/08/26 01:50:29;;;;;;;2.20;2.00;;;;;;;;;;5059032;28;20207;-69
2022/08/26 01:52:57;;;;;;;2.97;2.70;;;;;;;;;;5053051;28;20256;-69
2022/08/26 01:55:24;;;;;;;2.22;2.13;;;;;;;;;;5061065;28;20199;-69
2022/08/26 01:57:54;;;;;;;4.70;2.30;;;;;;;;;;5051533;28;20215;-69
2022/08/26 02:00:22;;;;;;;2.33;2.22;;;;;;;;;;5071393;28;20634;-69
2022/08/26 02:03:15;;;;;;;2.22;2.13;;;;;;;;;;5062876;28;20203;-69
2022/08/26 02:05:37;;;;;;;1.92;1.90;;;;;;;;;;5071296;28;20206;-69
2022/08/26 02:08:06;;;;;;;3.05;2.10;;;;;;;;;;5066834;28;20708;-69
2022/08/26 02:10:33;;;;;;;2.05;1.98;;;;;;;;;;5065850;28;20200;-69
2022/08/26 02:13:02;;;;;;;2.85;2.65;;;;;;;;;;5066326;28;20257;-69
2022/08/26 02:15:29;;;;;;;2.03;1.92;;;;;;;;;;5068238;28;20202;-69
2022/08/26 02:17:57;;;;;;;2.40;2.25;;;;;;;;;;5067541;28;20246;-70
2022/08/26 02:20:24;;;;;;;2.50;2.40;;;;;;;;;;5070278;28;20226;-70
2022/08/26 02:22:52;;;;;;;2.10;2.00;;;;;;;;;;5051808;28;20231;-69
2022/08/26 02:25:22;;;;;;;2.78;2.58;;;;;;;;;;5050847;28;20218;-70
2022/08/26 02:27:49;;;;;;;2.58;2.42;;;;;;;;;;5066484;28;20200;-69
2022/08/26 02:30:19;;;;;;;2.58;2.47;;;;;;;;;;5068661;28;20207;-70
2022/08/26 02:32:47;;;;;;;2.53;2.42;;;;;;;;;;5052650;28;20223;-70
2022/08/26 02:35:15;;;;;;;2.78;2.20;;;;;;;;;;5047110;28;20219;-69
2022/08/26 02:37:42;;;;;;;2.70;2.50;;;;;;;;;;5068826;28;20214;-69
2022/08/26 02:40:10;;;;;;;2.60;2.50;;;;;;;;;;5069220;28;20720;-69
2022/08/26 02:42:37;;;;;;;2.75;2.53;;;;;;;;;;5070091;28;20203;-70
2022/08/26 02:45:05;;;;;;;2.60;2.50;;;;;;;;;;5067536;28;20218;-69
2022/08/26 02:47:34;;;;;;;2.65;2.45;;;;;;;;;;5048961;28;20203;-69
2022/08/26 02:50:01;;;;;;;2.33;2.22;;;;;;;;;;5051312;28;20214;-69
2022/08/26 02:52:28;;;;;;;2.17;2.08;;;;;;;;;;5048071;28;20214;-69
2022/08/26 02:54:55;;;;;;;2.60;2.50;;;;;;;;;;5050531;28;20612;-69
2022/08/26 02:57:22;;;;;;;3.30;2.20;;;;;;;;;;5049268;28;20599;-70
2022/08/26 02:59:50;;;;;;;2.00;1.90;;;;;;;;;;5057624;28;20272;-69
2022/08/26 03:02:17;;;;;;;2.65;2.50;;;;;;;;;;5048747;28;20630;-70
2022/08/26 03:04:45;;;;;;;2.30;2.20;;;;;;;;;;5059396;28;20204;-70
2022/08/26 03:07:12;;;;;;;2.00;1.95;;;;;;;;;;5053394;28;20207;-70
2022/08/26 03:09:39;;;;;;;2.53;2.42;;;;;;;;;;5052885;28;20204;-70
2022/08/26 03:12:07;;;;;;;2.58;2.47;;;;;;;;;;5058207;28;20241;-70
2022/08/26 03:14:34;;;;;;;2.63;2.25;;;;;;;;;;5058798;28;20203;-69
2022/08/26 03:17:01;;;;;;;2.78;2.40;;;;;;;;;;5058638;28;20219;-70
2022/08/26 03:19:29;;;;;;;2.60;2.28;;;;;;;;;;5051863;28;20218;-69
2022/08/26 03:21:58;;;;;;;2.47;2.38;;;;;;;;;;5056740;28;20230;-69
2022/08/26 03:24:25;;;;;;;2.20;2.08;;;;;;;;;;5057815;28;20203;-70
2022/08/26 03:26:52;;;;;;;2.75;2.65;;;;;;;;;;5056739;28;20712;-69
2022/08/26 03:32:04;;;;;;;2.72;2.53;;;;;;;;;;5056301;28;20206;-69
2022/08/26 03:34:32;;;;;;;5.45;2.30;;;;;;;;;;5058096;28;20233;-69
2022/08/26 03:37:00;;;;;;;2.65;2.45;;;;;;;;;;5046307;28;20207;-68
2022/08/26 03:39:27;;;;;;;2.92;2.20;;;;;;;;;;5048571;28;20204;-70
2022/08/26 03:41:54;;;;;;;3.70;2.60;;;;;;;;;;5047100;28;20654;-69
2022/08/26 03:44:21;;;;;;;2.15;2.05;;;;;;;;;;5048104;28;20291;-69
2022/08/26 03:46:48;;;;;;;2.95;2.60;;;;;;;;;;5046007;28;20652;-68
2022/08/26 03:49:16;;;;;;;2.40;2.30;;;;;;;;;;5046786;28;20258;-69
2022/08/26 03:51:43;;;;;;;2.22;2.13;;;;;;;;;;5046373;28;20203;-69
2022/08/26 03:54:11;;;;;;;2.60;2.50;;;;;;;;;;5048416;28;20207;-69
2022/08/26 03:56:38;;;;;;;2.42;2.33;;;;;;;;;;5054564;28;20291;-69
2022/08/26 03:59:06;;;;;;;2.30;2.20;;;;;;;;;;5053559;28;20318;-69
2022/08/26 04:01:33;;;;;;;2.42;2.33;;;;;;;;;;5055432;28;20224;-68
2022/08/26 04:04:00;;;;;;;2.83;2.70;;;;;;;;;;5054523;28;20214;-68
2022/08/26 04:06:29;;;;;;;2.42;2.33;;;;;;;;;;5060440;28;20688;-69
2022/08/26 04:08:56;;;;;;;2.67;2.10;;;;;;;;;;5058558;28;20692;-68
2022/08/26 04:11:30;;;;;;;2.70;2.50;;;;;;;;;;5054024;28;20199;-69
2022/08/26 04:13:58;;;;;;;2.92;2.75;;;;;;;;;;5058954;28;20196;-69
2022/08/26 04:16:25;;;;;;;3.50;2.30;;;;;;;;;;5066494;28;20215;-69
2022/08/26 04:18:52;;;;;;;3.10;2.80;;;;;;;;;;5058041;28;20307;-68
2022/08/26 04:21:19;;;;;;;2.10;2.00;;;;;;;;;;5056437;28;20289;-69
2022/08/26 04:23:46;;;;;;;3.70;2.75;;;;;;;;;;5056719;28;20210;-69
2022/08/26 04:26:13;;;;;;;2.30;2.20;;;;;;;;;;5055108;28;20214;-69
2022/08/26 04:28:42;;;;;;;3.03;2.83;;;;;;;;;;5057514;28;20207;-68
2022/08/26 04:31:11;;;;;;;2.38;2.20;;;;;;;;;;5059939;28;20229;-69
2022/08/26 04:33:38;;;;;;;2.67;2.20;;;;;;;;;;5061582;28;20282;-68
2022/08/26 04:36:06;;;;;;;2.60;2.40;;;;;;;;;;5052179;28;20207;-68
2022/08/26 04:38:33;;;;;;;2.38;2.28;;;;;;;;;;5060165;28;20215;-69
2022/08/26 04:41:00;;;;;;;2.20;2.10;;;;;;;;;;5046369;28;20229;-68
2022/08/26 04:43:29;;;;;;;2.60;2.50;;;;;;;;;;5047746;28;20662;-68
2022/08/26 04:45:58;;;;;;;3.03;2.67;;;;;;;;;;5064839;28;20321;-69
2022/08/26 04:48:26;;;;;;;2.47;2.28;;;;;;;;;;5062180;28;20269;-69
2022/08/26 04:50:53;;;;;;;3.28;2.85;;;;;;;;;;5062925;28;20199;-68
2022/08/26 04:53:20;;;;;;;2.78;2.30;;;;;;;;;;5060300;28;20203;-70
2022/08/26 04:55:47;;;;;;;2.25;2.15;;;;;;;;;;5050820;28;20269;-69
2022/08/26 04:58:15;;;;;;;2.55;2.38;;;;;;;;;;5061484;28;20234;-70
2022/08/26 05:00:43;;;;;;;2.72;2.53;;;;;;;;;;5056470;28;20203;-70
2022/08/26 05:03:12;;;;;;;3.42;3.22;;;;;;;;;;5044579;28;20561;-70
2022/08/26 05:05:40;;;;;;;3.30;3.10;;;;;;;;;;5048377;28;20237;-70
2022/08/26 05:08:07;;;;;;;2.58;2.42;;;;;;;;;;5046673;28;20211;-70
2022/08/26 05:10:34;;;;;;;5.45;2.85;;;;;;;;;;5048723;28;20230;-69
2022/08/26 05:13:02;;;;;;;3.63;2.90;;;;;;;;;;5046263;28;20246;-70
2022/08/26 05:15:29;;;;;;;2.78;2.40;;;;;;;;;;5046699;28;20212;-69
2022/08/26 05:17:57;;;;;;;2.63;2.42;;;;;;;;;;5048612;28;20258;-70
2022/08/26 05:20:26;;;;;;;3.00;2.80;;;;;;;;;;5046243;28;20219;-70
2022/08/26 05:22:53;;;;;;;2.70;2.55;;;;;;;;;;5045811;28;20336;-69
2022/08/26 05:25:20;;;;;;;3.00;2.80;;;;;;;;;;5046164;28;20203;-70
2022/08/26 05:27:47;;;;;;;2.80;2.55;;;;;;;;;;5047917;28;20246;-69
2022/08/26 05:30:15;;;;;;;2.15;2.05;;;;;;;;;;5053060;28;20223;-69
2022/08/26 05:32:42;;;;;;;2.60;2.40;;;;;;;;;;5054636;28;20576;-69
2022/08/26 05:35:09;;;;;;;2.80;2.58;;;;;;;;;;5066108;28;20257;-68
2022/08/26 05:37:38;;;;;;;2.63;2.42;;;;;;;;;;5045926;28;20257;-64
2022/08/26 05:40:06;;;;;;;2.65;2.45;;;;;;;;;;5046671;28;20211;-69
2022/08/26 05:42:33;;;;;;;2.60;2.50;;;;;;;;;;5046080;28;20227;-69
2022/08/26 05:45:00;;;;;;;2.92;2.72;;;;;;;;;;5045353;28;20208;-68
2022/08/26 05:47:28;;;;;;;2.65;2.45;;;;;;;;;;5042852;28;20200;-69
2022/08/26 05:49:55;;;;;;;2.90;2.70;;;;;;;;;;5044063;28;20241;-69
2022/08/26 05:52:22;;;;;;;3.28;2.63;;;;;;;;;;5047080;28;20203;-69
2022/08/26 05:54:51;;;;;;;2.47;2.38;;;;;;;;;;5050342;28;20192;-69
2022/08/26 05:57:18;;;;;;;2.83;2.63;;;;;;;;;;5052654;28;20278;-69
2022/08/26 05:59:45;;;;;;;4.15;2.97;;;;;;;;;;5064392;28;20215;-69
2022/08/26 06:02:12;;;;;;;3.30;3.00;;;;;;;;;;5047256;28;20720;-69
2022/08/26 06:04:39;;;;;;;3.40;3.20;;;;;;;;;;5048358;28;20273;-69
2022/08/26 06:07:06;;;;;;;2.75;2.55;;;;;;;;;;5064073;28;20826;-72
2022/08/26 06:09:36;;;;;;;2.83;2.70;;;;;;;;;;5050380;28;20207;-69
2022/08/26 06:12:05;;;;;;;2.92;2.72;;;;;;;;;;5052448;28;20566;-69
2022/08/26 06:14:32;;;;;;;2.80;2.70;;;;;;;;;;5055475;28;20204;-69
2022/08/26 06:16:59;;;;;;;2.63;2.53;;;;;;;;;;5050791;28;20242;-69
2022/08/26 06:19:27;;;;;;;2.78;2.53;;;;;;;;;;5054881;28;20630;-68
2022/08/26 06:21:54;;;;;;;3.28;2.97;;;;;;;;;;5060394;28;20230;-69
2022/08/26 06:27:08;;;;;;;8.38;2.65;;;;;;;;;;5054944;28;20222;-68
2022/08/26 06:29:36;;;;;;;2.60;2.50;;;;;;;;;;5052451;28;20203;-68
2022/08/26 06:32:04;;;;;;;2.55;2.45;;;;;;;;;;5067480;28;20675;-68
2022/08/26 06:34:31;;;;;;;2.25;2.15;;;;;;;;;;5065234;28;20207;-68
2022/08/26 06:37:00;;;;;;;2.60;2.55;;;;;;;;;;5048630;28;20210;-68
2022/08/26 06:39:27;;;;;;;3.03;2.58;;;;;;;;;;5050339;28;20297;-68
2022/08/26 06:41:54;;;;;;;2.50;2.40;;;;;;;;;;5051709;28;20242;-68
2022/08/26 06:44:23;;;;;;;2.80;2.70;;;;;;;;;;5063033;28;20695;-68
2022/08/26 06:46:50;;;;;;;2.97;2.85;;;;;;;;;;5065947;28;20687;-68
2022/08/26 06:49:17;;;;;;;2.92;2.75;;;;;;;;;;5054182;28;20246;-68
2022/08/26 06:51:44;;;;;;;4.85;3.13;;;;;;;;;;5059237;28;20724;-68
2022/08/26 06:54:11;;;;;;;3.15;2.97;;;;;;;;;;5057255;28;20214;-69
2022/08/26 06:56:40;;;;;;;4.70;3.15;;;;;;;;;;5050243;28;20203;-69
2022/08/26 06:59:08;;;;;;;2.67;2.50;;;;;;;;;;5054100;28;20219;-69
2022/08/26 07:01:38;;;;;;;3.17;2.97;;;;;;;;;;5051444;28;20706;-67
2022/08/26 07:04:06;;;;;;;3.35;3.10;;;;;;;;;;5051019;28;20207;-67
2022/08/26 07:06:36;;;;;;;3.05;2.80;;;;;;;;;;5052887;28;20576;-68
2022/08/26 07:09:06;;;;;;;3.05;2.75;;;;;;;;;;5045167;28;20685;-69
2022/08/26 07:11:33;;;;;;;3.33;3.03;;;;;;;;;;5044953;28;20204;-69
2022/08/26 07:14:01;;;;;;;4.25;3.05;;;;;;;;;;5044036;28;20624;-66
2022/08/26 07:16:28;;;;;;;3.67;3.15;;;;;;;;;;5051063;28;20266;-67
2022/08/26 07:18:57;;;;;;;3.00;2.80;;;;;;;;;;5048244;28;20609;-66
2022/08/26 07:21:24;;;;;;;3.20;2.90;;;;;;;;;;5049331;28;20239;-66
2022/08/26 07:23:52;;;;;;;5.18;3.45;;;;;;;;;;5050891;28;20405;-64
2022/08/26 07:26:20;;;;;;;2.88;2.78;;;;;;;;;;5052023;28;20198;-66
2022/08/26 07:28:49;;;;;;;3.22;2.95;;;;;;;;;;5051007;28;20226;-65
2022/08/26 07:31:17;;;;;;;3.05;2.95;;;;;;;;;;5045012;28;20285;-64
2022/08/26 07:33:44;;;;;;;2.65;2.55;;;;;;;;;;5046773;28;20208;-64
2022/08/26 07:36:13;;;;;;;3.20;3.00;;;;;;;;;;5050850;28;20207;-65
2022/08/26 07:38:43;;;;;;;2.80;2.67;;;;;;;;;;5043884;28;20200;-67
2022/08/26 07:41:10;;;;;;;4.53;2.85;;;;;;;;;;5044091;28;20211;-71
2022/08/26 07:43:37;;;;;;;3.15;2.72;;;;;;;;;;5054398;28;20232;-72
2022/08/26 07:46:05;;;;;;;2.72;2.63;;;;;;;;;;5051601;28;20242;-68
2022/08/26 07:48:32;;;;;;;3.15;2.95;;;;;;;;;;5051677;28;20616;-65
2022/08/26 07:50:59;;;;;;;3.85;3.55;;;;;;;;;;5049782;28;20586;-66
2022/08/26 07:53:27;;;;;;;3.10;2.75;;;;;;;;;;5058052;28;20214;-67
2022/08/26 07:55:54;;;;;;;3.15;3.05;;;;;;;;;;5049251;28;20210;-70
2022/08/26 07:58:21;;;;;;;2.60;2.45;;;;;;;;;;5047842;28;20238;-71
2022/08/26 08:00:48;;;;;;;4.05;2.80;;;;;;;;;;5051943;28;20211;-71
2022/08/26 08:03:15;;;;;;;3.20;3.00;;;;;;;;;;5052602;28;20230;-71
2022/08/26 08:05:43;;;;;;;3.30;3.03;;;;;;;;;;5044075;28;20211;-71
2022/08/26 08:08:11;;;;;;;3.97;2.75;;;;;;;;;;5041379;28;20640;-71
2022/08/26 08:10:40;;;;;;;3.60;3.30;;;;;;;;;;5043183;28;20310;-71
2022/08/26 08:13:07;;;;;;;3.13;2.90;;;;;;;;;;5041800;28;20650;-71
2022/08/26 08:15:36;;;;;;;3.38;3.05;;;;;;;;;;5044203;28;20214;-71
2022/08/26 08:18:03;;;;;;;6.43;2.95;;;;;;;;;;5046116;28;20246;-71
2022/08/26 08:20:30;;;;;;;3.40;3.20;;;;;;;;;;5051961;28;20226;-71
2022/08/26 08:22:57;;;;;;;3.20;3.00;;;;;;;;;;5059842;28;20238;-66
2022/08/26 08:25:24;;;;;;;3.50;3.30;;;;;;;;;;5051026;28;20204;-69
2022/08/26 08:27:52;;;;;;;3.22;3.03;;;;;;;;;;5050099;28;20227;-69
2022/08/26 08:30:21;;;;;;;4.88;2.95;;;;;;;;;;5053155;28;20235;-68
2022/08/26 08:32:48;;;;;;;3.30;3.10;;;;;;;;;;5047924;28;20728;-70
2022/08/26 08:35:16;;;;;;;3.10;2.90;;;;;;;;;;5054033;28;20219;-70
2022/08/26 08:37:44;;;;;;;8.57;3.50;;;;;;;;;;5043274;28;20204;-70
2022/08/26 08:40:12;;;;;;;3.38;3.00;;;;;;;;;;5042210;28;20214;-70
2022/08/26 08:42:44;;;;;;;3.10;2.95;;;;;;;;;;5040038;28;20620;-68
2022/08/26 08:45:14;;;;;;;4.07;3.22;;;;;;;;;;5051415;28;20207;-68
2022/08/26 08:47:42;;;;;;;3.00;2.88;;;;;;;;;;5052178;28;20555;-68
2022/08/26 08:50:17;;;;;;;2.95;2.80;;;;;;;;;;5042876;28;20318;-68
2022/08/26 08:52:46;;;;;;;4.05;3.67;;;;;;;;;;5052873;28;20207;-68
2022/08/26 08:55:15;;;;;;;3.22;3.13;;;;;;;;;;5056909;28;20212;-68
2022/08/26 08:57:48;;;;;;;3.08;2.88;;;;;;;;;;5058443;28;20218;-65
2022/08/26 09:00:18;;;;;;;2.70;2.60;;;;;;;;;;5057577;28;20207;-66
2022/08/26 09:02:51;;;;;;;3.65;3.35;;;;;;;;;;5051355;28;20730;-68
2022/08/26 09:05:50;;;;;;;3.95;3.65;;;;;;;;;;5048143;28;20211;-67
2022/08/26 09:08:18;;;;;;;7.15;3.78;;;;;;;;;;5052177;28;20218;-64
2022/08/26 09:10:48;;;;;;;3.67;3.38;;;;;;;;;;5048450;28;20215;-66
2022/08/26 09:13:17;;;;;;;3.83;3.53;;;;;;;;;;5052120;28;20203;-73
2022/08/26 09:15:51;;;;;;;3.42;3.22;;;;;;;;;;5043057;28;20196;-73
2022/08/26 09:18:25;;;;;;;3.75;3.55;;;;;;;;;;5043103;28;20238;-69
2022/08/26 09:20:55;;;;;;;3.65;3.30;;;;;;;;;;5047095;28;20198;-68
2022/08/26 09:23:23;;;;;;;5.57;3.28;;;;;;;;;;5055864;28;20231;-73
2022/08/26 09:25:52;;;;;;;3.30;3.05;;;;;;;;;;5050439;28;20268;-71
2022/08/26 09:28:20;;;;;;;3.45;3.25;;;;;;;;;;5045628;28;20222;-72
2022/08/26 09:31:00;;;;;;;3.78;3.58;;;;;;;;;;5059136;28;20203;-73
2022/08/26 09:33:28;;;;;;;3.42;3.15;;;;;;;;;;5064739;28;20207;-72
2022/08/26 09:36:11;;;;;;;3.95;3.60;;;;;;;;;;5053654;28;20265;-72
2022/08/26 09:38:38;;;;;;;3.38;3.17;;;;;;;;;;5067944;28;20211;-71
2022/08/26 09:41:07;;;;;;;2.95;2.75;;;;;;;;;;5051335;28;20217;-71
2022/08/26 09:43:34;;;;;;;2.95;2.85;;;;;;;;;;5057628;28;20313;-70
2022/08/26 09:46:13;;;;;;;3.42;3.20;;;;;;;;;;5066378;28;20252;-66
2022/08/26 09:48:41;;;;;;;3.38;3.28;;;;;;;;;;5057779;28;20673;-69
2022/08/26 09:51:26;;;;;;;6.60;3.17;;;;;;;;;;5066816;28;20234;-70
2022/08/26 09:53:55;;;;;;;3.63;3.33;;;;;;;;;;5055712;28;20214;-70
2022/08/26 09:56:25;;;;;;;3.42;3.22;;;;;;;;;;5066672;28;20745;-71
2022/08/26 09:58:53;;;;;;;3.50;3.30;;;;;;;;;;5063515;28;20399;-71
2022/08/26 10:01:28;;;;;;;4.40;3.35;;;;;;;;;;5049390;28;20231;-71
2022/08/26 10:04:03;;;;;;;3.85;3.50;;;;;;;;;;5047517;28;20882;-69
2022/08/26 10:06:33;;;;;;;3.33;3.05;;;;;;;;;;5046868;28;20211;-70
2022/08/26 10:09:01;;;;;;;4.20;3.50;;;;;;;;;;5048184;28;20692;-69
2022/08/26 10:11:33;;;;;;;3.47;3.30;;;;;;;;;;5049620;28;20222;-71
2022/08/26 10:14:02;;;;;;;4.25;3.30;;;;;;;;;;5055629;28;20211;-69
2022/08/26 10:16:35;;;;;;;3.08;2.88;;;;;;;;;;5064264;28;20214;-69
2022/08/26 10:19:05;;;;;;;4.05;3.25;;;;;;;;;;5052219;28;20230;-70
2022/08/26 10:21:36;;;;;;;3.28;3.08;;;;;;;;;;5058350;28;20239;-69
2022/08/26 10:24:04;;;;;;;4.88;3.53;;;;;;;;;;5064550;28;20246;-69
2022/08/26 10:26:33;;;;;;;3.90;3.65;;;;;;;;;;5061917;28;20203;-68
2022/08/26 10:29:05;;;;;;;3.53;3.22;;;;;;;;;;5070415;28;20577;-71
2022/08/26 10:31:37;;;;;;;3.35;3.15;;;;;;;;;;5050491;28;20231;-73
2022/08/26 10:34:04;;;;;;;3.25;2.95;;;;;;;;;;5063207;28;20200;-73
2022/08/26 10:36:51;;;;;;;3.20;2.90;;;;;;;;;;5054855;28;20625;-72
2022/08/26 10:39:21;;;;;;;3.10;3.00;;;;;;;;;;5055767;28;20210;-73
2022/08/26 10:41:50;;;;;;;3.60;3.25;;;;;;;;;;5062966;28;20440;-72
2022/08/26 10:44:18;;;;;;;3.50;3.28;;;;;;;;;;5069346;28;20227;-72
2022/08/26 10:46:49;;;;;;;3.78;3.50;;;;;;;;;;5070718;28;20218;-69
2022/08/26 10:49:17;;;;;;;3.00;2.80;;;;;;;;;;5062329;28;20211;-67
2022/08/26 10:51:50;;;;;;;3.42;3.20;;;;;;;;;;5059643;28;20207;-67
2022/08/26 10:54:20;;;;;;;4.28;3.08;;;;;;;;;;5064399;28;20203;-67
2022/08/26 10:56:54;;;;;;;3.50;3.15;;;;;;;;;;5056064;28;20266;-67
2022/08/26 10:59:24;;;;;;;3.72;3.40;;;;;;;;;;5060025;28;20199;-66
2022/08/26 11:01:57;;;;;;;4.00;3.05;;;;;;;;;;5051367;28;20220;-67
2022/08/26 11:04:31;;;;;;;4.13;3.47;;;;;;;;;;5053728;28;20259;-67
2022/08/26 11:07:16;;;;;;;4.07;3.30;;;;;;;;;;5049266;28;20617;-67
2022/08/26 11:09:44;;;;;;;5.63;3.45;;;;;;;;;;5066198;28;20220;-68
2022/08/26 11:12:45;;;;;;;3.70;3.50;;;;;;;;;;5063218;28;20214;-68
2022/08/26 11:15:12;;;;;;;3.80;3.60;;;;;;;;;;5049965;28;20218;-67
2022/08/26 11:17:58;;;;;;;5.47;3.90;;;;;;;;;;5049901;28;20231;-68
2022/08/26 11:20:35;;;;;;;4.03;3.70;;;;;;;;;;5049848;28;20203;-68
2022/08/26 11:23:17;;;;;;;4.30;3.70;;;;;;;;;;5049766;28;20236;-68
2022/08/26 11:25:59;;;;;;;4.07;3.78;;;;;;;;;;5048601;28;20690;-67
2022/08/26 11:28:33;;;;;;;4.57;4.28;;;;;;;;;;5049393;28;20211;-67
2022/08/26 11:31:00;;;;;;;5.32;4.82;;;;;;;;;;5057702;28;20362;-66
2022/08/26 11:33:55;;;;;;;6.68;6.00;;;;;;;;;;5054827;28;20247;-65
2022/08/26 11:36:41;;;;;;;7.20;5.47;;;;;;;;;;5059799;28;20294;-66
2022/08/26 11:39:18;;;;;;;6.40;5.85;;;;;;;;;;5049576;28;20280;-66
2022/08/26 11:41:45;;;;;;;7.28;5.72;;;;;;;;;;5049699;28;20211;-67
2022/08/26 11:44:16;;;;;;;7.80;6.30;;;;;;;;;;5049645;28;20250;-67
2022/08/26 11:46:52;;;;;;;7.20;6.47;;;;;;;;;;5046944;28;20204;-66
2022/08/26 11:49:19;;;;;;;6.65;6.05;;;;;;;;;;5062371;28;20921;-66
2022/08/26 11:51:46;;;;;;;8.80;7.43;;;;;;;;;;5059804;28;20204;-67
2022/08/26 11:54:14;;;;;;;14.43;7.72;;;;;;;;;;5062407;28;20203;-65
2022/08/26 11:56:43;;;;;;;7.78;6.80;;;;;;;;;;5069166;28;20241;-67
2022/08/26 11:59:11;;;;;;;7.55;6.78;;;;;;;;;;5049884;28;20211;-67
2022/08/26 12:01:40;;;;;;;7.43;6.55;;;;;;;;;;5067581;28;20218;-66
2022/08/26 12:04:09;;;;;;;7.25;6.40;;;;;;;;;;5069363;28;20234;-67
2022/08/26 12:06:37;;;;;;;7.32;6.22;;;;;;;;;;5050218;28;20207;-67
2022/08/26 12:09:07;;;;;;;8.38;6.47;;;;;;;;;;5049994;28;20227;-67
2022/08/26 12:11:34;;;;;;;5.78;5.28;;;;;;;;;;5043846;28;20212;-67
2022/08/26 12:14:04;;;;;;;6.07;5.57;;;;;;;;;;5060651;28;20606;-70
2022/08/26 12:16:33;;;;;;;6.20;5.60;;;;;;;;;;5045945;28;20671;-69
2022/08/26 12:19:00;;;;;;;5.15;4.85;;;;;;;;;;5053563;28;20227;-68
2022/08/26 12:21:28;;;;;;;5.35;4.85;;;;;;;;;;5063386;28;20591;-69
2022/08/26 12:23:56;;;;;;;4.75;4.45;;;;;;;;;;5056193;28;20223;-69
2022/08/26 12:26:26;;;;;;;6.90;4.75;;;;;;;;;;5055915;28;20203;-70
2022/08/26 12:28:55;;;;;;;5.88;4.72;;;;;;;;;;5056869;28;20554;-68
2022/08/26 12:31:28;;;;;;;6.22;5.57;;;;;;;;;;5065312;28;20203;-69
2022/08/26 12:33:57;;;;;;;6.68;4.90;;;;;;;;;;5049784;28;20200;-69
2022/08/26 12:36:26;;;;;;;4.82;4.35;;;;;;;;;;5045773;28;20196;-69
2022/08/26 12:38:53;;;;;;;5.65;5.07;;;;;;;;;;5053486;28;20242;-69
2022/08/26 12:41:40;;;;;;;6.05;4.53;;;;;;;;;;5059483;28;20202;-68
2022/08/26 12:44:07;;;;;;;4.57;4.18;;;;;;;;;;5048744;28;20226;-70
2022/08/26 12:46:36;;;;;;;4.75;4.35;;;;;;;;;;5058208;28;20213;-68
2022/08/26 12:49:03;;;;;;;6.40;4.32;;;;;;;;;;5048758;28;20226;-68
2022/08/26 12:51:31;;;;;;;4.70;4.40;;;;;;;;;;5045263;28;20216;-67
2022/08/26 12:53:58;;;;;;;5.10;4.70;;;;;;;;;;5043946;28;20203;-67
2022/08/26 12:56:27;;;;;;;5.55;4.57;;;;;;;;;;5045254;28;20211;-67
2022/08/26 12:59:05;;;;;;;4.78;4.38;;;;;;;;;;5050207;28;21863;-68
2022/08/26 13:01:42;;;;;;;5.53;5.07;;;;;;;;;;5055699;28;20227;-68
2022/08/26 13:04:24;;;;;;;5.13;4.72;;;;;;;;;;5054281;28;20784;-67
2022/08/26 13:07:11;;;;;;;6.32;5.72;;;;;;;;;;5061467;28;20583;-67
2022/08/26 13:09:38;;;;;;;5.45;5.05;;;;;;;;;;5068699;28;20206;-66
2022/08/26 13:12:05;;;;;;;5.88;5.28;;;;;;;;;;5062134;28;20207;-66
2022/08/26 13:14:32;;;;;;;6.07;5.57;;;;;;;;;;5058539;28;20210;-67
2022/08/26 13:17:00;;;;;;;5.38;4.88;;;;;;;;;;5066815;28;20237;-67
2022/08/26 13:19:28;;;;;;;4.78;4.47;;;;;;;;;;5051837;28;20684;-69
2022/08/26 13:21:56;;;;;;;5.53;5.03;;;;;;;;;;5055065;28;20682;-66
2022/08/26 13:24:26;;;;;;;4.93;4.53;;;;;;;;;;5068043;28;20219;-67
2022/08/26 13:26:53;;;;;;;5.38;4.97;;;;;;;;;;5066622;28;20209;-67
2022/08/26 13:29:20;;;;;;;5.63;5.22;;;;;;;;;;5071800;28;20280;-66
2022/08/26 13:31:48;;;;;;;7.60;6.65;;;;;;;;;;5050748;28;20581;-66
2022/08/26 13:34:17;;;;;;;11.38;7.05;;;;;;;;;;5050095;28;20211;-65
2022/08/26 13:36:45;;;;;;;10.15;7.88;;;;;;;;;;5068690;28;20916;-66
2022/08/26 13:39:12;;;;;;;13.10;8.48;;;;;;;;;;5062114;28;20298;-66
2022/08/26 13:41:39;;;;;;;10.73;8.88;;;;;;;;;;5052027;28;20207;-67
2022/08/26 13:44:07;;;;;;;8.98;7.55;;;;;;;;;;5056125;28;20283;-67
2022/08/26 13:46:34;;;;;;;9.10;6.80;;;;;;;;;;5070497;28;20688;-66
2022/08/26 13:49:04;;;;;;;7.38;6.30;;;;;;;;;;5063440;28;20218;-67
2022/08/26 13:51:33;;;;;;;7.70;7.00;;;;;;;;;;5058791;28;20210;-67
2022/08/26 13:54:00;;;;;;;7.82;6.30;;;;;;;;;;5066724;28;20198;-66
2022/08/26 13:56:28;;;;;;;9.68;6.90;;;;;;;;;;5057746;28;20207;-65
2022/08/26 13:58:55;;;;;;;9.60;7.53;;;;;;;;;;5058837;28;20293;-67
2022/08/26 14:01:22;;;;;;;8.18;7.32;;;;;;;;;;5056456;28;20295;-67
2022/08/26 14:03:50;;;;;;;8.05;7.22;;;;;;;;;;5053483;28;20228;-66
2022/08/26 14:06:17;;;;;;;8.18;6.82;;;;;;;;;;5047844;28;20206;-66
2022/08/26 14:08:46;;;;;;;8.05;7.22;;;;;;;;;;5054678;28;20212;-70
2022/08/26 14:11:13;;;;;;;8.70;7.13;;;;;;;;;;5061486;28;20207;-67
2022/08/26 14:13:40;;;;;;;9.45;8.05;;;;;;;;;;5052969;28;20218;-67
2022/08/26 14:16:09;;;;;;;8.48;7.20;;;;;;;;;;5047570;28;20240;-67
2022/08/26 14:18:38;;;;;;;9.05;7.30;;;;;;;;;;5054665;28;20222;-67
2022/08/26 14:21:06;;;;;;;10.35;7.78;;;;;;;;;;5053916;28;20337;-66
2022/08/26 14:23:33;;;;;;;9.55;7.85;;;;;;;;;;5059673;28;20293;-67
2022/08/26 14:26:06;;;;;;;7.97;6.97;;;;;;;;;;5059682;28;20218;-67
2022/08/26 14:28:33;;;;;;;8.15;7.35;;;;;;;;;;5051347;28;20219;-67
2022/08/26 14:31:01;;;;;;;7.72;7.00;;;;;;;;;;5058018;28;20306;-66
2022/08/26 14:33:31;;;;;;;8.13;7.30;;;;;;;;;;5051610;28;20580;-66
2022/08/26 14:36:26;;;;;;;7.80;6.78;;;;;;;;;;5059043;28;20196;-66
2022/08/26 14:38:45;;;;;;;7.78;6.38;;;;;;;;;;5049745;28;20208;-67
2022/08/26 14:41:15;;;;;;;8.05;6.78;;;;;;;;;;5052510;28;20214;-66
2022/08/26 14:43:45;;;;;;;6.97;6.28;;;;;;;;;;5060373;28;20291;-67
2022/08/26 14:46:12;;;;;;;7.05;6.40;;;;;;;;;;5062173;28;20289;-66
2022/08/26 14:48:39;;;;;;;6.75;6.13;;;;;;;;;;5051175;28;20729;-67
2022/08/26 14:51:06;;;;;;;9.65;6.45;;;;;;;;;;5065567;28;20207;-67
2022/08/26 14:56:19;;;;;;;7.00;6.30;;;;;;;;;;5050615;28;20282;-67
2022/08/26 14:58:46;;;;;;;7.28;6.57;;;;;;;;;;5064865;28;20211;-67
2022/08/26 15:01:14;;;;;;;6.80;6.15;;;;;;;;;;5051399;28;20630;-68
2022/08/26 15:03:41;;;;;;;7.18;6.47;;;;;;;;;;5059305;28;20214;-68